sensor_id;sensor_type;location;lat;lon;timestamp;P1;durP1;ratioP1;P2;durP2;ratioP2
17953;SDS011;9102;53.548;9.926;2022-11-23T00:01:12;59.13;;;24.73;;
17953;SDS011;9102;53.548;9.926;2022-11-23T00:03:40;59.75;;;25.83;;
17953;SDS011;9102;53.548;9.926;2022-11-23T00:06:07;53.67;;;23.73;;
17953;SDS011;9102;53.548;9.926;2022-11-23T00:08:34;56.13;;;25.50;;
17953;SDS011;9102;53.548;9.926;2022-11-23T00:11:01;58.63;;;25.07;;
17953;SDS011;9102;53.548;9.926;2022-11-23T00:13:27;54.25;;;23.88;;
17953;SDS011;9102;53.548;9.926;2022-11-23T00:15:56;55.15;;;24.02;;
17953;SDS011;9102;53.548;9.926;2022-11-23T00:18:22;50.92;;;23.65;;
17953;SDS011;9102;53.548;9.926;2022-11-23T00:24:11;50.28;;;23.42;;
17953;SDS011;9102;53.548;9.926;2022-11-23T00:26:38;58.25;;;24.85;;
17953;SDS011;9102;53.548;9.926;2022-11-23T00:29:05;55.03;;;24.50;;
17953;SDS011;9102;53.548;9.926;2022-11-23T00:31:33;51.22;;;24.10;;
17953;SDS011;9102;53.548;9.926;2022-11-23T00:34:01;55.15;;;24.55;;
17953;SDS011;9102;53.548;9.926;2022-11-23T00:36:27;55.05;;;25.25;;
17953;SDS011;9102;53.548;9.926;2022-11-23T00:38:54;57.75;;;25.08;;
17953;SDS011;9102;53.548;9.926;2022-11-23T00:41:22;54.63;;;24.13;;
17953;SDS011;9102;53.548;9.926;2022-11-23T00:43:50;54.97;;;25.25;;
17953;SDS011;9102;53.548;9.926;2022-11-23T00:46:18;58.28;;;24.83;;
17953;SDS011;9102;53.548;9.926;2022-11-23T00:48:47;60.85;;;25.75;;
17953;SDS011;9102;53.548;9.926;2022-11-23T00:51:15;59.60;;;26.38;;
17953;SDS011;9102;53.548;9.926;2022-11-23T00:53:44;53.75;;;24.90;;
17953;SDS011;9102;53.548;9.926;2022-11-23T00:56:11;55.42;;;25.65;;
17953;SDS011;9102;53.548;9.926;2022-11-23T00:58:39;55.85;;;24.50;;
17953;SDS011;9102;53.548;9.926;2022-11-23T01:01:06;51.15;;;23.77;;
17953;SDS011;9102;53.548;9.926;2022-11-23T01:03:37;59.97;;;25.23;;
17953;SDS011;9102;53.548;9.926;2022-11-23T01:06:07;55.00;;;24.88;;
17953;SDS011;9102;53.548;9.926;2022-11-23T01:08:36;53.13;;;24.52;;
17953;SDS011;9102;53.548;9.926;2022-11-23T01:11:04;55.35;;;24.08;;
17953;SDS011;9102;53.548;9.926;2022-11-23T01:13:32;53.15;;;24.20;;
17953;SDS011;9102;53.548;9.926;2022-11-23T01:15:59;53.05;;;24.10;;
17953;SDS011;9102;53.548;9.926;2022-11-23T01:18:26;61.17;;;25.33;;
17953;SDS011;9102;53.548;9.926;2022-11-23T01:20:53;61.08;;;24.17;;
17953;SDS011;9102;53.548;9.926;2022-11-23T01:23:21;62.20;;;24.13;;
17953;SDS011;9102;53.548;9.926;2022-11-23T01:25:48;49.85;;;23.63;;
17953;SDS011;9102;53.548;9.926;2022-11-23T01:28:15;54.30;;;23.17;;
17953;SDS011;9102;53.548;9.926;2022-11-23T01:30:41;53.28;;;24.35;;
17953;SDS011;9102;53.548;9.926;2022-11-23T01:33:08;53.85;;;23.83;;
17953;SDS011;9102;53.548;9.926;2022-11-23T01:35:35;56.00;;;24.90;;
17953;SDS011;9102;53.548;9.926;2022-11-23T01:38:02;54.40;;;24.42;;
17953;SDS011;9102;53.548;9.926;2022-11-23T01:40:30;58.80;;;25.02;;
17953;SDS011;9102;53.548;9.926;2022-11-23T01:43:06;53.78;;;24.73;;
17953;SDS011;9102;53.548;9.926;2022-11-23T01:45:40;51.20;;;23.25;;
17953;SDS011;9102;53.548;9.926;2022-11-23T01:48:10;54.10;;;22.88;;
17953;SDS011;9102;53.548;9.926;2022-11-23T01:50:42;51.50;;;23.92;;
17953;SDS011;9102;53.548;9.926;2022-11-23T01:53:11;51.97;;;24.23;;
17953;SDS011;9102;53.548;9.926;2022-11-23T01:55:39;56.63;;;24.85;;
17953;SDS011;9102;53.548;9.926;2022-11-23T01:58:08;49.55;;;23.35;;
17953;SDS011;9102;53.548;9.926;2022-11-23T02:00:37;52.45;;;23.25;;
17953;SDS011;9102;53.548;9.926;2022-11-23T02:03:04;51.80;;;23.13;;
17953;SDS011;9102;53.548;9.926;2022-11-23T02:05:33;51.97;;;23.40;;
17953;SDS011;9102;53.548;9.926;2022-11-23T02:08:02;51.08;;;22.25;;
17953;SDS011;9102;53.548;9.926;2022-11-23T02:10:30;49.97;;;22.33;;
17953;SDS011;9102;53.548;9.926;2022-11-23T02:13:01;47.67;;;22.48;;
17953;SDS011;9102;53.548;9.926;2022-11-23T02:15:30;48.17;;;22.45;;
17953;SDS011;9102;53.548;9.926;2022-11-23T02:17:57;51.35;;;22.92;;
17953;SDS011;9102;53.548;9.926;2022-11-23T02:20:27;51.72;;;23.27;;
17953;SDS011;9102;53.548;9.926;2022-11-23T02:22:58;49.28;;;23.20;;
17953;SDS011;9102;53.548;9.926;2022-11-23T02:25:39;58.53;;;25.42;;
17953;SDS011;9102;53.548;9.926;2022-11-23T02:28:20;52.22;;;23.23;;
17953;SDS011;9102;53.548;9.926;2022-11-23T02:30:50;60.58;;;24.98;;
17953;SDS011;9102;53.548;9.926;2022-11-23T02:33:19;57.50;;;25.38;;
17953;SDS011;9102;53.548;9.926;2022-11-23T02:35:47;51.78;;;24.65;;
17953;SDS011;9102;53.548;9.926;2022-11-23T02:38:15;58.60;;;25.23;;
17953;SDS011;9102;53.548;9.926;2022-11-23T02:40:43;52.40;;;23.90;;
17953;SDS011;9102;53.548;9.926;2022-11-23T02:43:11;55.67;;;24.88;;
17953;SDS011;9102;53.548;9.926;2022-11-23T02:45:40;57.58;;;24.27;;
17953;SDS011;9102;53.548;9.926;2022-11-23T02:48:12;61.38;;;26.13;;
17953;SDS011;9102;53.548;9.926;2022-11-23T02:50:39;55.70;;;24.08;;
17953;SDS011;9102;53.548;9.926;2022-11-23T02:53:06;57.83;;;25.58;;
17953;SDS011;9102;53.548;9.926;2022-11-23T02:55:33;64.45;;;29.40;;
17953;SDS011;9102;53.548;9.926;2022-11-23T02:58:00;150.77;;;56.75;;
17953;SDS011;9102;53.548;9.926;2022-11-23T03:00:29;55.30;;;25.10;;
17953;SDS011;9102;53.548;9.926;2022-11-23T03:02:57;55.95;;;23.92;;
17953;SDS011;9102;53.548;9.926;2022-11-23T03:05:25;56.60;;;24.52;;
17953;SDS011;9102;53.548;9.926;2022-11-23T03:07:52;53.88;;;25.02;;
17953;SDS011;9102;53.548;9.926;2022-11-23T03:10:19;50.38;;;23.30;;
17953;SDS011;9102;53.548;9.926;2022-11-23T03:12:46;59.35;;;24.45;;
17953;SDS011;9102;53.548;9.926;2022-11-23T03:15:13;54.35;;;23.90;;
17953;SDS011;9102;53.548;9.926;2022-11-23T03:17:41;53.60;;;23.98;;
17953;SDS011;9102;53.548;9.926;2022-11-23T03:20:08;51.25;;;22.83;;
17953;SDS011;9102;53.548;9.926;2022-11-23T03:22:36;53.00;;;24.27;;
17953;SDS011;9102;53.548;9.926;2022-11-23T03:25:04;49.75;;;23.08;;
17953;SDS011;9102;53.548;9.926;2022-11-23T03:27:31;55.63;;;23.05;;
17953;SDS011;9102;53.548;9.926;2022-11-23T03:29:59;47.17;;;22.20;;
17953;SDS011;9102;53.548;9.926;2022-11-23T03:32:26;54.05;;;23.52;;
17953;SDS011;9102;53.548;9.926;2022-11-23T03:34:54;44.60;;;22.77;;
17953;SDS011;9102;53.548;9.926;2022-11-23T03:37:20;53.55;;;23.23;;
17953;SDS011;9102;53.548;9.926;2022-11-23T03:39:48;51.05;;;23.45;;
17953;SDS011;9102;53.548;9.926;2022-11-23T03:42:15;47.97;;;22.52;;
17953;SDS011;9102;53.548;9.926;2022-11-23T03:44:41;44.88;;;22.20;;
17953;SDS011;9102;53.548;9.926;2022-11-23T03:47:08;49.35;;;22.25;;
17953;SDS011;9102;53.548;9.926;2022-11-23T03:49:36;46.33;;;21.67;;
17953;SDS011;9102;53.548;9.926;2022-11-23T03:52:04;49.67;;;22.40;;
17953;SDS011;9102;53.548;9.926;2022-11-23T03:54:31;48.33;;;21.77;;
17953;SDS011;9102;53.548;9.926;2022-11-23T03:56:57;46.80;;;21.88;;
17953;SDS011;9102;53.548;9.926;2022-11-23T03:59:24;46.10;;;21.08;;
17953;SDS011;9102;53.548;9.926;2022-11-23T04:01:51;51.40;;;22.10;;
17953;SDS011;9102;53.548;9.926;2022-11-23T04:04:18;38.85;;;20.92;;
17953;SDS011;9102;53.548;9.926;2022-11-23T04:06:45;43.40;;;20.95;;
17953;SDS011;9102;53.548;9.926;2022-11-23T04:09:13;46.08;;;21.35;;
17953;SDS011;9102;53.548;9.926;2022-11-23T04:11:40;46.75;;;20.92;;
17953;SDS011;9102;53.548;9.926;2022-11-23T04:14:07;41.65;;;20.45;;
17953;SDS011;9102;53.548;9.926;2022-11-23T04:16:34;44.33;;;20.65;;
17953;SDS011;9102;53.548;9.926;2022-11-23T04:19:00;48.27;;;21.07;;
17953;SDS011;9102;53.548;9.926;2022-11-23T04:21:27;40.10;;;19.92;;
17953;SDS011;9102;53.548;9.926;2022-11-23T04:23:54;43.75;;;20.75;;
17953;SDS011;9102;53.548;9.926;2022-11-23T04:26:22;40.78;;;20.42;;
17953;SDS011;9102;53.548;9.926;2022-11-23T04:28:49;46.88;;;20.17;;
17953;SDS011;9102;53.548;9.926;2022-11-23T04:31:16;41.42;;;20.52;;
17953;SDS011;9102;53.548;9.926;2022-11-23T04:33:43;42.90;;;20.08;;
17953;SDS011;9102;53.548;9.926;2022-11-23T04:36:09;43.58;;;20.45;;
17953;SDS011;9102;53.548;9.926;2022-11-23T04:38:36;42.42;;;20.70;;
17953;SDS011;9102;53.548;9.926;2022-11-23T04:41:03;39.65;;;19.95;;
17953;SDS011;9102;53.548;9.926;2022-11-23T04:43:31;44.33;;;20.10;;
17953;SDS011;9102;53.548;9.926;2022-11-23T04:45:58;40.72;;;19.92;;
17953;SDS011;9102;53.548;9.926;2022-11-23T04:48:25;42.67;;;20.05;;
17953;SDS011;9102;53.548;9.926;2022-11-23T04:50:52;45.67;;;20.73;;
17953;SDS011;9102;53.548;9.926;2022-11-23T04:56:41;39.78;;;19.50;;
17953;SDS011;9102;53.548;9.926;2022-11-23T04:59:09;43.03;;;19.65;;
17953;SDS011;9102;53.548;9.926;2022-11-23T05:01:36;44.70;;;20.33;;
17953;SDS011;9102;53.548;9.926;2022-11-23T05:04:02;44.80;;;21.60;;
17953;SDS011;9102;53.548;9.926;2022-11-23T05:06:29;40.33;;;19.63;;
17953;SDS011;9102;53.548;9.926;2022-11-23T05:08:57;46.00;;;20.65;;
17953;SDS011;9102;53.548;9.926;2022-11-23T05:11:23;44.58;;;20.63;;
17953;SDS011;9102;53.548;9.926;2022-11-23T05:13:51;45.42;;;22.23;;
17953;SDS011;9102;53.548;9.926;2022-11-23T05:16:19;43.10;;;21.48;;
17953;SDS011;9102;53.548;9.926;2022-11-23T05:18:46;42.80;;;21.17;;
17953;SDS011;9102;53.548;9.926;2022-11-23T05:21:12;47.65;;;20.40;;
17953;SDS011;9102;53.548;9.926;2022-11-23T05:23:39;49.60;;;21.55;;
17953;SDS011;9102;53.548;9.926;2022-11-23T05:26:06;42.70;;;21.45;;
17953;SDS011;9102;53.548;9.926;2022-11-23T05:28:33;42.20;;;20.30;;
17953;SDS011;9102;53.548;9.926;2022-11-23T05:31:01;45.33;;;20.83;;
17953;SDS011;9102;53.548;9.926;2022-11-23T05:33:30;48.33;;;22.00;;
17953;SDS011;9102;53.548;9.926;2022-11-23T05:35:56;44.20;;;21.48;;
17953;SDS011;9102;53.548;9.926;2022-11-23T05:38:23;56.28;;;22.05;;
17953;SDS011;9102;53.548;9.926;2022-11-23T05:40:50;49.92;;;21.95;;
17953;SDS011;9102;53.548;9.926;2022-11-23T05:43:17;49.25;;;22.33;;
17953;SDS011;9102;53.548;9.926;2022-11-23T05:45:44;45.17;;;21.58;;
17953;SDS011;9102;53.548;9.926;2022-11-23T05:48:10;48.40;;;22.27;;
17953;SDS011;9102;53.548;9.926;2022-11-23T05:50:38;46.45;;;22.25;;
17953;SDS011;9102;53.548;9.926;2022-11-23T05:53:06;46.00;;;22.13;;
17953;SDS011;9102;53.548;9.926;2022-11-23T05:55:32;47.67;;;21.30;;
17953;SDS011;9102;53.548;9.926;2022-11-23T05:57:59;49.25;;;21.80;;
17953;SDS011;9102;53.548;9.926;2022-11-23T06:00:26;45.72;;;21.50;;
17953;SDS011;9102;53.548;9.926;2022-11-23T06:02:57;49.72;;;22.05;;
17953;SDS011;9102;53.548;9.926;2022-11-23T06:05:24;42.63;;;20.60;;
17953;SDS011;9102;53.548;9.926;2022-11-23T06:07:53;46.25;;;21.30;;
17953;SDS011;9102;53.548;9.926;2022-11-23T06:10:20;46.17;;;21.02;;
17953;SDS011;9102;53.548;9.926;2022-11-23T06:12:46;48.55;;;21.75;;
17953;SDS011;9102;53.548;9.926;2022-11-23T06:15:15;41.47;;;19.73;;
17953;SDS011;9102;53.548;9.926;2022-11-23T06:17:42;42.90;;;20.23;;
17953;SDS011;9102;53.548;9.926;2022-11-23T06:20:09;38.88;;;20.17;;
17953;SDS011;9102;53.548;9.926;2022-11-23T06:22:36;45.40;;;21.10;;
17953;SDS011;9102;53.548;9.926;2022-11-23T06:25:05;45.72;;;20.55;;
17953;SDS011;9102;53.548;9.926;2022-11-23T06:27:32;44.80;;;21.20;;
17953;SDS011;9102;53.548;9.926;2022-11-23T06:29:59;42.40;;;20.92;;
17953;SDS011;9102;53.548;9.926;2022-11-23T06:32:26;41.17;;;19.17;;
17953;SDS011;9102;53.548;9.926;2022-11-23T06:34:53;40.08;;;18.65;;
17953;SDS011;9102;53.548;9.926;2022-11-23T06:37:20;39.75;;;19.73;;
17953;SDS011;9102;53.548;9.926;2022-11-23T06:39:46;38.90;;;19.77;;
17953;SDS011;9102;53.548;9.926;2022-11-23T06:42:15;41.00;;;19.40;;
17953;SDS011;9102;53.548;9.926;2022-11-23T06:44:41;46.00;;;20.30;;
17953;SDS011;9102;53.548;9.926;2022-11-23T06:47:08;41.00;;;18.88;;
17953;SDS011;9102;53.548;9.926;2022-11-23T06:49:35;43.75;;;19.45;;
17953;SDS011;9102;53.548;9.926;2022-11-23T06:52:02;38.22;;;18.58;;
17953;SDS011;9102;53.548;9.926;2022-11-23T06:54:30;40.65;;;18.52;;
17953;SDS011;9102;53.548;9.926;2022-11-23T06:56:56;41.28;;;18.70;;
17953;SDS011;9102;53.548;9.926;2022-11-23T06:59:25;43.75;;;17.83;;
17953;SDS011;9102;53.548;9.926;2022-11-23T07:01:51;45.13;;;19.50;;
17953;SDS011;9102;53.548;9.926;2022-11-23T07:04:18;40.38;;;18.15;;
17953;SDS011;9102;53.548;9.926;2022-11-23T07:06:45;40.97;;;17.80;;
17953;SDS011;9102;53.548;9.926;2022-11-23T07:09:12;39.70;;;18.27;;
17953;SDS011;9102;53.548;9.926;2022-11-23T07:11:38;37.22;;;18.67;;
17953;SDS011;9102;53.548;9.926;2022-11-23T07:14:05;37.63;;;18.02;;
17953;SDS011;9102;53.548;9.926;2022-11-23T07:16:33;40.65;;;18.50;;
17953;SDS011;9102;53.548;9.926;2022-11-23T07:19:00;40.20;;;19.00;;
17953;SDS011;9102;53.548;9.926;2022-11-23T07:21:27;42.22;;;18.92;;
17953;SDS011;9102;53.548;9.926;2022-11-23T07:23:54;33.10;;;17.27;;
17953;SDS011;9102;53.548;9.926;2022-11-23T07:26:21;33.70;;;16.60;;
17953;SDS011;9102;53.548;9.926;2022-11-23T07:28:48;40.97;;;17.58;;
17953;SDS011;9102;53.548;9.926;2022-11-23T07:31:15;38.03;;;18.65;;
17953;SDS011;9102;53.548;9.926;2022-11-23T07:33:43;38.15;;;16.45;;
17953;SDS011;9102;53.548;9.926;2022-11-23T07:36:10;31.08;;;16.33;;
17953;SDS011;9102;53.548;9.926;2022-11-23T07:38:38;33.85;;;16.35;;
17953;SDS011;9102;53.548;9.926;2022-11-23T07:41:05;29.50;;;15.77;;
17953;SDS011;9102;53.548;9.926;2022-11-23T07:43:33;32.95;;;17.05;;
17953;SDS011;9102;53.548;9.926;2022-11-23T07:46:02;38.28;;;16.17;;
17953;SDS011;9102;53.548;9.926;2022-11-23T07:48:29;31.20;;;15.65;;
17953;SDS011;9102;53.548;9.926;2022-11-23T07:50:57;33.35;;;15.93;;
17953;SDS011;9102;53.548;9.926;2022-11-23T07:53:24;30.25;;;16.13;;
17953;SDS011;9102;53.548;9.926;2022-11-23T07:55:54;34.38;;;16.23;;
17953;SDS011;9102;53.548;9.926;2022-11-23T07:58:22;32.20;;;15.52;;
17953;SDS011;9102;53.548;9.926;2022-11-23T08:00:49;28.38;;;14.60;;
17953;SDS011;9102;53.548;9.926;2022-11-23T08:03:16;27.23;;;14.73;;
17953;SDS011;9102;53.548;9.926;2022-11-23T08:05:43;32.60;;;15.20;;
17953;SDS011;9102;53.548;9.926;2022-11-23T08:08:11;37.58;;;15.82;;
17953;SDS011;9102;53.548;9.926;2022-11-23T08:10:38;47.42;;;17.95;;
17953;SDS011;9102;53.548;9.926;2022-11-23T08:13:06;33.15;;;16.42;;
17953;SDS011;9102;53.548;9.926;2022-11-23T08:15:32;31.17;;;15.20;;
17953;SDS011;9102;53.548;9.926;2022-11-23T08:18:01;31.30;;;14.80;;
17953;SDS011;9102;53.548;9.926;2022-11-23T08:20:29;31.15;;;15.40;;
17953;SDS011;9102;53.548;9.926;2022-11-23T08:22:57;29.83;;;15.10;;
17953;SDS011;9102;53.548;9.926;2022-11-23T08:25:26;26.45;;;13.52;;
17953;SDS011;9102;53.548;9.926;2022-11-23T08:27:54;28.17;;;14.55;;
17953;SDS011;9102;53.548;9.926;2022-11-23T08:30:21;33.22;;;14.02;;
17953;SDS011;9102;53.548;9.926;2022-11-23T08:32:48;30.63;;;14.73;;
17953;SDS011;9102;53.548;9.926;2022-11-23T08:35:14;29.10;;;12.98;;
17953;SDS011;9102;53.548;9.926;2022-11-23T08:37:42;30.02;;;14.27;;
17953;SDS011;9102;53.548;9.926;2022-11-23T08:40:09;32.95;;;13.98;;
17953;SDS011;9102;53.548;9.926;2022-11-23T08:42:38;36.38;;;14.48;;
17953;SDS011;9102;53.548;9.926;2022-11-23T08:45:05;29.98;;;13.95;;
17953;SDS011;9102;53.548;9.926;2022-11-23T08:47:33;27.85;;;14.23;;
17953;SDS011;9102;53.548;9.926;2022-11-23T08:50:00;25.83;;;13.27;;
17953;SDS011;9102;53.548;9.926;2022-11-23T08:52:27;32.00;;;13.30;;
17953;SDS011;9102;53.548;9.926;2022-11-23T08:54:54;29.23;;;13.18;;
17953;SDS011;9102;53.548;9.926;2022-11-23T08:57:20;23.48;;;12.27;;
17953;SDS011;9102;53.548;9.926;2022-11-23T08:59:49;24.75;;;13.30;;
17953;SDS011;9102;53.548;9.926;2022-11-23T09:02:15;24.42;;;12.50;;
17953;SDS011;9102;53.548;9.926;2022-11-23T09:04:42;26.42;;;12.30;;
17953;SDS011;9102;53.548;9.926;2022-11-23T09:07:11;26.40;;;12.73;;
17953;SDS011;9102;53.548;9.926;2022-11-23T09:09:38;31.25;;;12.60;;
17953;SDS011;9102;53.548;9.926;2022-11-23T09:12:05;26.67;;;12.25;;
17953;SDS011;9102;53.548;9.926;2022-11-23T09:14:32;26.50;;;12.15;;
17953;SDS011;9102;53.548;9.926;2022-11-23T09:17:01;20.15;;;11.18;;
17953;SDS011;9102;53.548;9.926;2022-11-23T09:19:28;23.33;;;11.07;;
17953;SDS011;9102;53.548;9.926;2022-11-23T09:21:55;28.05;;;13.23;;
17953;SDS011;9102;53.548;9.926;2022-11-23T09:24:23;26.40;;;11.27;;
17953;SDS011;9102;53.548;9.926;2022-11-23T09:26:51;20.30;;;10.00;;
17953;SDS011;9102;53.548;9.926;2022-11-23T09:29:18;21.35;;;9.85;;
17953;SDS011;9102;53.548;9.926;2022-11-23T09:31:45;20.83;;;9.52;;
17953;SDS011;9102;53.548;9.926;2022-11-23T09:34:14;23.65;;;10.20;;
17953;SDS011;9102;53.548;9.926;2022-11-23T09:36:40;21.55;;;9.27;;
17953;SDS011;9102;53.548;9.926;2022-11-23T09:39:07;24.70;;;10.35;;
17953;SDS011;9102;53.548;9.926;2022-11-23T09:44:44;21.35;;;10.10;;
17953;SDS011;9102;53.548;9.926;2022-11-23T09:47:30;25.88;;;10.20;;
17953;SDS011;9102;53.548;9.926;2022-11-23T09:50:09;19.30;;;9.23;;
17953;SDS011;9102;53.548;9.926;2022-11-23T09:52:41;25.63;;;10.63;;
17953;SDS011;9102;53.548;9.926;2022-11-23T09:55:14;24.80;;;9.98;;
17953;SDS011;9102;53.548;9.926;2022-11-23T09:57:44;17.15;;;9.45;;
17953;SDS011;9102;53.548;9.926;2022-11-23T10:02:43;17.65;;;10.00;;
17953;SDS011;9102;53.548;9.926;2022-11-23T10:05:13;21.35;;;10.25;;
17953;SDS011;9102;53.548;9.926;2022-11-23T10:07:46;21.17;;;9.30;;
17953;SDS011;9102;53.548;9.926;2022-11-23T10:10:29;17.63;;;9.15;;
17953;SDS011;9102;53.548;9.926;2022-11-23T10:13:10;18.42;;;8.70;;
17953;SDS011;9102;53.548;9.926;2022-11-23T10:15:52;18.02;;;8.18;;
17953;SDS011;9102;53.548;9.926;2022-11-23T10:18:33;16.98;;;8.50;;
17953;SDS011;9102;53.548;9.926;2022-11-23T10:21:12;22.67;;;8.23;;
17953;SDS011;9102;53.548;9.926;2022-11-23T10:23:51;17.67;;;8.05;;
17953;SDS011;9102;53.548;9.926;2022-11-23T10:26:19;19.75;;;8.55;;
17953;SDS011;9102;53.548;9.926;2022-11-23T10:28:48;21.42;;;8.10;;
17953;SDS011;9102;53.548;9.926;2022-11-23T10:31:16;19.38;;;8.45;;
17953;SDS011;9102;53.548;9.926;2022-11-23T10:33:50;17.98;;;7.70;;
17953;SDS011;9102;53.548;9.926;2022-11-23T10:36:22;15.65;;;7.18;;
17953;SDS011;9102;53.548;9.926;2022-11-23T10:38:49;13.38;;;6.97;;
17953;SDS011;9102;53.548;9.926;2022-11-23T10:41:22;14.68;;;7.35;;
17953;SDS011;9102;53.548;9.926;2022-11-23T10:43:49;16.48;;;7.20;;
17953;SDS011;9102;53.548;9.926;2022-11-23T10:46:22;15.18;;;7.43;;
17953;SDS011;9102;53.548;9.926;2022-11-23T10:49:07;16.65;;;7.60;;
17953;SDS011;9102;53.548;9.926;2022-11-23T10:51:37;14.30;;;7.45;;
17953;SDS011;9102;53.548;9.926;2022-11-23T10:54:08;13.00;;;7.13;;
17953;SDS011;9102;53.548;9.926;2022-11-23T10:56:45;13.68;;;7.35;;
17953;SDS011;9102;53.548;9.926;2022-11-23T10:59:24;18.80;;;7.20;;
17953;SDS011;9102;53.548;9.926;2022-11-23T11:01:58;16.48;;;7.43;;
17953;SDS011;9102;53.548;9.926;2022-11-23T11:04:26;19.88;;;7.30;;
17953;SDS011;9102;53.548;9.926;2022-11-23T11:07:08;15.93;;;7.60;;
17953;SDS011;9102;53.548;9.926;2022-11-23T11:09:47;14.25;;;7.07;;
17953;SDS011;9102;53.548;9.926;2022-11-23T11:12:17;13.25;;;6.72;;
17953;SDS011;9102;53.548;9.926;2022-11-23T11:14:57;14.90;;;6.72;;
17953;SDS011;9102;53.548;9.926;2022-11-23T11:17:32;14.38;;;6.55;;
17953;SDS011;9102;53.548;9.926;2022-11-23T11:20:00;15.57;;;7.13;;
17953;SDS011;9102;53.548;9.926;2022-11-23T11:22:49;18.80;;;7.60;;
17953;SDS011;9102;53.548;9.926;2022-11-23T11:25:25;15.38;;;7.40;;
17953;SDS011;9102;53.548;9.926;2022-11-23T11:27:54;12.25;;;6.85;;
17953;SDS011;9102;53.548;9.926;2022-11-23T11:30:22;16.45;;;7.25;;
17953;SDS011;9102;53.548;9.926;2022-11-23T11:32:51;14.02;;;5.95;;
17953;SDS011;9102;53.548;9.926;2022-11-23T11:35:28;15.40;;;6.60;;
17953;SDS011;9102;53.548;9.926;2022-11-23T11:38:01;15.25;;;6.82;;
17953;SDS011;9102;53.548;9.926;2022-11-23T11:43:58;15.25;;;5.80;;
17953;SDS011;9102;53.548;9.926;2022-11-23T11:46:33;13.23;;;5.68;;
17953;SDS011;9102;53.548;9.926;2022-11-23T11:49:05;14.30;;;5.47;;
17953;SDS011;9102;53.548;9.926;2022-11-23T11:51:35;14.80;;;6.38;;
17953;SDS011;9102;53.548;9.926;2022-11-23T11:54:10;11.05;;;5.10;;
17953;SDS011;9102;53.548;9.926;2022-11-23T11:56:44;13.10;;;5.78;;
17953;SDS011;9102;53.548;9.926;2022-11-23T11:59:15;14.73;;;6.40;;
17953;SDS011;9102;53.548;9.926;2022-11-23T12:01:52;13.50;;;5.70;;
17953;SDS011;9102;53.548;9.926;2022-11-23T12:04:25;14.02;;;5.18;;
17953;SDS011;9102;53.548;9.926;2022-11-23T12:06:58;16.15;;;5.90;;
17953;SDS011;9102;53.548;9.926;2022-11-23T12:09:31;16.70;;;5.10;;
17953;SDS011;9102;53.548;9.926;2022-11-23T12:12:03;13.13;;;4.68;;
17953;SDS011;9102;53.548;9.926;2022-11-23T12:14:35;11.20;;;4.28;;
17953;SDS011;9102;53.548;9.926;2022-11-23T12:17:05;13.85;;;4.60;;
17953;SDS011;9102;53.548;9.926;2022-11-23T12:19:36;13.10;;;4.82;;
17953;SDS011;9102;53.548;9.926;2022-11-23T12:22:11;13.18;;;3.92;;
17953;SDS011;9102;53.548;9.926;2022-11-23T12:25:08;12.52;;;4.35;;
17953;SDS011;9102;53.548;9.926;2022-11-23T12:27:48;10.18;;;4.35;;
17953;SDS011;9102;53.548;9.926;2022-11-23T12:30:25;12.80;;;4.68;;
17953;SDS011;9102;53.548;9.926;2022-11-23T12:33:02;11.60;;;4.68;;
17953;SDS011;9102;53.548;9.926;2022-11-23T12:36:01;13.18;;;4.20;;
17953;SDS011;9102;53.548;9.926;2022-11-23T12:38:37;12.45;;;4.20;;
17953;SDS011;9102;53.548;9.926;2022-11-23T12:41:15;11.63;;;4.18;;
17953;SDS011;9102;53.548;9.926;2022-11-23T12:43:53;9.52;;;3.35;;
17953;SDS011;9102;53.548;9.926;2022-11-23T12:46:40;7.32;;;3.50;;
17953;SDS011;9102;53.548;9.926;2022-11-23T12:49:17;16.20;;;4.10;;
17953;SDS011;9102;53.548;9.926;2022-11-23T12:51:54;8.52;;;4.20;;
17953;SDS011;9102;53.548;9.926;2022-11-23T12:54:33;12.07;;;4.47;;
17953;SDS011;9102;53.548;9.926;2022-11-23T12:57:13;9.85;;;4.18;;
17953;SDS011;9102;53.548;9.926;2022-11-23T12:59:45;11.45;;;4.25;;
17953;SDS011;9102;53.548;9.926;2022-11-23T13:02:31;10.30;;;3.97;;
17953;SDS011;9102;53.548;9.926;2022-11-23T13:05:31;9.52;;;3.70;;
17953;SDS011;9102;53.548;9.926;2022-11-23T13:08:14;8.57;;;3.67;;
17953;SDS011;9102;53.548;9.926;2022-11-23T13:11:03;12.70;;;4.18;;
17953;SDS011;9102;53.548;9.926;2022-11-23T13:13:47;10.48;;;3.53;;
17953;SDS011;9102;53.548;9.926;2022-11-23T13:16:33;10.65;;;3.95;;
17953;SDS011;9102;53.548;9.926;2022-11-23T13:19:22;11.65;;;4.55;;
17953;SDS011;9102;53.548;9.926;2022-11-23T13:21:59;15.63;;;4.40;;
17953;SDS011;9102;53.548;9.926;2022-11-23T13:24:31;10.43;;;4.30;;
17953;SDS011;9102;53.548;9.926;2022-11-23T13:30:01;16.95;;;5.25;;
17953;SDS011;9102;53.548;9.926;2022-11-23T13:32:34;8.38;;;4.30;;
17953;SDS011;9102;53.548;9.926;2022-11-23T13:38:22;10.90;;;4.55;;
17953;SDS011;9102;53.548;9.926;2022-11-23T13:40:51;10.60;;;4.38;;
17953;SDS011;9102;53.548;9.926;2022-11-23T13:43:19;11.95;;;4.10;;
17953;SDS011;9102;53.548;9.926;2022-11-23T13:48:44;8.40;;;3.45;;
17953;SDS011;9102;53.548;9.926;2022-11-23T13:51:13;6.50;;;2.95;;
17953;SDS011;9102;53.548;9.926;2022-11-23T13:53:50;14.75;;;3.92;;
17953;SDS011;9102;53.548;9.926;2022-11-23T13:56:24;10.10;;;3.00;;
17953;SDS011;9102;53.548;9.926;2022-11-23T13:58:55;8.27;;;3.50;;
17953;SDS011;9102;53.548;9.926;2022-11-23T14:04:49;13.48;;;3.97;;
17953;SDS011;9102;53.548;9.926;2022-11-23T14:07:16;7.38;;;3.60;;
17953;SDS011;9102;53.548;9.926;2022-11-23T14:09:48;6.75;;;3.53;;
17953;SDS011;9102;53.548;9.926;2022-11-23T14:12:20;8.88;;;3.33;;
17953;SDS011;9102;53.548;9.926;2022-11-23T14:14:54;9.02;;;3.22;;
17953;SDS011;9102;53.548;9.926;2022-11-23T14:20:29;9.45;;;3.35;;
17953;SDS011;9102;53.548;9.926;2022-11-23T14:23:16;10.02;;;3.42;;
17953;SDS011;9102;53.548;9.926;2022-11-23T14:26:08;11.10;;;3.08;;
17953;SDS011;9102;53.548;9.926;2022-11-23T14:28:44;8.93;;;3.15;;
17953;SDS011;9102;53.548;9.926;2022-11-23T14:31:22;11.15;;;3.75;;
17953;SDS011;9102;53.548;9.926;2022-11-23T14:34:00;10.80;;;4.40;;
17953;SDS011;9102;53.548;9.926;2022-11-23T14:36:33;13.23;;;4.40;;
17953;SDS011;9102;53.548;9.926;2022-11-23T14:39:08;10.90;;;3.88;;
17953;SDS011;9102;53.548;9.926;2022-11-23T14:41:57;10.48;;;3.60;;
17953;SDS011;9102;53.548;9.926;2022-11-23T14:44:27;8.50;;;2.92;;
17953;SDS011;9102;53.548;9.926;2022-11-23T14:46:58;11.43;;;3.88;;
17953;SDS011;9102;53.548;9.926;2022-11-23T14:49:27;9.20;;;3.53;;
17953;SDS011;9102;53.548;9.926;2022-11-23T14:51:54;8.70;;;3.17;;
17953;SDS011;9102;53.548;9.926;2022-11-23T14:54:21;7.50;;;3.58;;
17953;SDS011;9102;53.548;9.926;2022-11-23T14:56:49;10.32;;;4.47;;
17953;SDS011;9102;53.548;9.926;2022-11-23T14:59:19;6.80;;;3.45;;
17953;SDS011;9102;53.548;9.926;2022-11-23T15:01:49;11.10;;;3.67;;
17953;SDS011;9102;53.548;9.926;2022-11-23T15:04:21;12.80;;;3.47;;
17953;SDS011;9102;53.548;9.926;2022-11-23T15:06:52;11.15;;;3.92;;
17953;SDS011;9102;53.548;9.926;2022-11-23T15:09:27;9.48;;;4.28;;
17953;SDS011;9102;53.548;9.926;2022-11-23T15:12:05;11.52;;;3.83;;
17953;SDS011;9102;53.548;9.926;2022-11-23T15:14:33;15.65;;;4.90;;
17953;SDS011;9102;53.548;9.926;2022-11-23T15:17:11;9.98;;;4.50;;
17953;SDS011;9102;53.548;9.926;2022-11-23T15:19:39;13.00;;;4.72;;
17953;SDS011;9102;53.548;9.926;2022-11-23T15:22:12;10.85;;;5.03;;
17953;SDS011;9102;53.548;9.926;2022-11-23T15:24:41;11.45;;;5.25;;
17953;SDS011;9102;53.548;9.926;2022-11-23T15:27:10;19.63;;;6.28;;
17953;SDS011;9102;53.548;9.926;2022-11-23T15:29:49;14.50;;;7.07;;